Pendleton, OR

2:06 PM PDT on September 01, 2014 (GMT -0700)
Meacham | Change Station
CLOSE
Current Station
Airport
Location: Meacham,
Elevation: 3720 ft
Nearby Weather Stations

Elev 3720 ft 45.51 °N, 118.42 °W | Updated 10 minutes ago

Clear
Clear
67 °F
Feels Like 67 °F
N
5
Wind Variable Wind from Variable

Today
High -- | Low -- °F
--% Chance of Precip.
Yesterday
High -- | Low -- °F
Precip. -- in
6:16 AM 7:32 PM
Waxing Crescent, 44% visible
Pressure 30.07 in
Visibility 10.0 miles
Clouds Clear
Dew Point 42 °F
Humidity 40%
Rainfall 0.00 in
Snow Depth Not available.
UV 8 out of 12
Pollen 5.60 out of 12
Air Quality Not available.
Flu Activity Not available.
METAR KMEH 012056Z AUTO VRB04KT 10SM CLR 19/06 A3010 RMK AO2 SLP181 T01940056 58009

More Conditions Fewer Conditions

Pressure 30.07 in
Visibility 10.0 miles
Clouds Clear
Dew Point 42 °F
Humidity 40%
Rainfall 0.00 in
Snow Depth Not available.
UV 8 out of 12
Pollen 5.60 out of 12
Air Quality Not available.
Flu Activity Not available.
METAR KMEH 012056Z AUTO VRB04KT 10SM CLR 19/06 A3010 RMK AO2 SLP181 T01940056 58009

More Conditions Fewer Conditions

10-Day Weather Forecast

Almanac

Astronomy

Sep. 01, 2014 Rise Set
Actual Time 6:16 AM PDT 7:32 PM PDT
Civil Twilight 5:45 AM PDT 8:03 PM PDT
Nautical Twilight 5:08 AM PDT 8:40 PM PDT
Astronomical Twilight 4:29 AM PDT 9:19 PM PDT
Moon 1:27 PM PDT 11:17 PM PDT
Length of Visible Light 14h 17m
Length of Day
13h 16m
Tomorrow will be 3m 5s shorter.
Waxing Crescent, 44% of the Moon is Illuminated
Today
Waxing Crescent
Sep 2
First Quarter
Sep 8
Full
Sep 15
Last Quarter
Sep 24
New

Today's Extremes

State Highs State Lows

Community

WunderPhotos

Upload Photos

1,749,407 photos uploaded!

WunderBlogs® & News

Nearby

Snow Depth

Station Depth Elevation
Lucky Strike 0 in 5050 ft
Arbuckle Mountain 1 in 5400 ft
Madison Butte 0 in 5250 ft
Bourne 0 in 5800 ft
Mt. Howard 0 in 7910 ft

Earthquake Activity

City Distance Mag. Time & Date
No recent earthquake activity has been reported nearby.
Minimum magnitude displayed is 2.5.

Coastal Water Temperatures

Place Temperature
No Stations Reporting

Nearby Weather Stations